createdAt,value
2022-12-31T00:01:48.180Z,16.05
2022-12-31T00:04:18.379Z,16.16
2022-12-31T00:06:46.350Z,16.99
2022-12-31T00:09:16.717Z,16.36
2022-12-31T00:11:44.950Z,17.11
2022-12-31T00:14:12.419Z,16.83
2022-12-31T00:16:43.418Z,16.07
2022-12-31T00:19:13.877Z,16.86
2022-12-31T00:21:46.718Z,17.14
2022-12-31T00:24:16.531Z,17.24
2022-12-31T00:26:43.896Z,17.21
2022-12-31T00:29:11.024Z,17.36
2022-12-31T00:31:39.804Z,16.75
2022-12-31T00:34:07.733Z,16.93
2022-12-31T00:36:39.249Z,16.79
2022-12-31T00:39:11.573Z,16.57
2022-12-31T00:41:38.832Z,16.75
2022-12-31T00:44:06.654Z,16.09
2022-12-31T00:49:04.722Z,16.55
2022-12-31T00:51:33.114Z,16.53
2022-12-31T00:54:00.425Z,16.67
2022-12-31T00:56:30.397Z,16.69
2022-12-31T00:58:59.333Z,16.67
2022-12-31T01:01:33.782Z,16.48
2022-12-31T01:04:09.875Z,16.36
2022-12-31T01:06:37.796Z,15.89
2022-12-31T01:09:06.761Z,16.57
2022-12-31T01:11:34.363Z,16.72
2022-12-31T01:14:15.283Z,17.04
2022-12-31T01:16:47.197Z,16.72
2022-12-31T01:19:24.383Z,16.78
2022-12-31T01:21:52.413Z,16.94
2022-12-31T01:24:21.966Z,16.93
2022-12-31T01:26:49.555Z,15.42
2022-12-31T01:29:17.128Z,15.43
2022-12-31T01:31:44.447Z,15.39
2022-12-31T01:34:11.735Z,16.01
2022-12-31T01:36:39.199Z,16.01
2022-12-31T01:39:09.051Z,16.44
2022-12-31T01:41:41.853Z,16.46
2022-12-31T01:44:12.198Z,16.60
2022-12-31T01:47:02.748Z,16.22
2022-12-31T01:49:41.878Z,16.34
2022-12-31T01:52:27.443Z,16.21
2022-12-31T01:55:34.976Z,15.11
2022-12-31T01:58:14.303Z,15.71
2022-12-31T02:00:57.428Z,16.16
2022-12-31T02:03:27.560Z,16.50
2022-12-31T02:06:26.180Z,15.99
2022-12-31T02:08:53.359Z,16.24
2022-12-31T02:11:30.030Z,16.42
2022-12-31T02:14:06.304Z,16.65
2022-12-31T02:17:24.203Z,16.40
2022-12-31T02:20:31.252Z,16.31
2022-12-31T02:23:36.255Z,16.25
2022-12-31T02:26:21.366Z,16.27
2022-12-31T02:28:57.385Z,16.15
2022-12-31T02:31:44.128Z,15.92
2022-12-31T02:34:55.307Z,16.32
2022-12-31T02:37:28.136Z,16.05
2022-12-31T02:39:56.604Z,16.20
2022-12-31T02:42:23.775Z,15.87
2022-12-31T02:44:50.960Z,15.68
2022-12-31T02:47:42.669Z,15.96
2022-12-31T02:51:10.427Z,16.29
2022-12-31T02:54:04.903Z,15.48
2022-12-31T02:57:26.850Z,16.39
2022-12-31T03:00:29.840Z,16.71
2022-12-31T03:03:00.007Z,15.26
2022-12-31T03:05:33.548Z,15.35
2022-12-31T03:08:00.833Z,16.11
2022-12-31T03:10:27.953Z,16.26
2022-12-31T03:12:55.645Z,15.20
2022-12-31T03:15:30.928Z,16.25
2022-12-31T03:18:10.904Z,16.56
2022-12-31T03:21:04.799Z,16.35
2022-12-31T03:24:05.186Z,16.16
2022-12-31T03:26:32.302Z,16.30
2022-12-31T03:28:59.484Z,16.54
2022-12-31T03:31:26.638Z,16.67
2022-12-31T03:33:53.850Z,16.49
2022-12-31T03:36:21.130Z,15.98
2022-12-31T03:38:52.578Z,16.07
2022-12-31T03:41:20.343Z,16.02
2022-12-31T03:43:47.623Z,16.21
2022-12-31T03:46:14.770Z,16.12
2022-12-31T03:48:42.003Z,15.72
2022-12-31T03:51:09.245Z,15.91
2022-12-31T03:53:36.387Z,16.11
2022-12-31T03:56:03.675Z,16.17
2022-12-31T03:58:30.941Z,15.89
2022-12-31T04:00:58.247Z,16.01
2022-12-31T04:03:25.441Z,15.48
2022-12-31T04:05:55.769Z,15.59
2022-12-31T04:08:23.751Z,16.17
2022-12-31T04:10:51.182Z,16.12
2022-12-31T04:13:18.359Z,16.15
2022-12-31T04:15:45.627Z,16.07
2022-12-31T04:18:13.410Z,16.13
2022-12-31T04:20:40.574Z,16.00
2022-12-31T04:23:07.929Z,16.13
2022-12-31T04:25:34.936Z,16.47
2022-12-31T04:28:02.094Z,16.68
2022-12-31T04:30:29.212Z,16.59
2022-12-31T04:32:56.439Z,16.55
2022-12-31T04:35:23.657Z,16.17
2022-12-31T04:37:51.976Z,15.99
2022-12-31T04:40:19.164Z,16.04
2022-12-31T04:42:46.349Z,15.93
2022-12-31T04:45:13.565Z,16.11
2022-12-31T04:47:40.791Z,16.49
2022-12-31T04:50:08.611Z,16.73
2022-12-31T04:52:42.479Z,17.01
2022-12-31T04:55:11.278Z,16.58
2022-12-31T04:57:38.655Z,16.62
2022-12-31T05:00:06.207Z,16.18
2022-12-31T05:02:33.476Z,16.48
2022-12-31T05:05:00.850Z,16.49
2022-12-31T05:07:28.074Z,16.65
2022-12-31T05:09:55.246Z,16.88
2022-12-31T05:12:22.462Z,17.23
2022-12-31T05:14:49.660Z,17.25
2022-12-31T05:17:27.052Z,17.18
2022-12-31T05:19:54.545Z,17.11
2022-12-31T05:22:33.591Z,17.03
2022-12-31T05:25:03.004Z,16.87
2022-12-31T05:27:31.600Z,17.13
2022-12-31T05:30:00.540Z,16.92
2022-12-31T05:32:43.734Z,17.10
2022-12-31T05:35:12.951Z,17.13
2022-12-31T05:37:44.630Z,17.42
2022-12-31T05:40:16.719Z,17.25
2022-12-31T05:42:43.951Z,17.30
2022-12-31T05:45:18.173Z,16.42
2022-12-31T05:47:46.247Z,17.27
2022-12-31T05:50:15.928Z,17.58
2022-12-31T05:52:47.704Z,17.82
2022-12-31T05:55:24.084Z,17.73
2022-12-31T05:57:53.258Z,17.37
2022-12-31T06:00:26.266Z,17.86
2022-12-31T06:02:53.680Z,17.79
2022-12-31T06:05:27.593Z,18.09
2022-12-31T06:07:54.808Z,18.02
2022-12-31T06:10:22.972Z,17.81
2022-12-31T06:12:50.210Z,17.87
2022-12-31T06:15:21.300Z,17.15
2022-12-31T06:17:48.662Z,16.53
2022-12-31T06:20:15.936Z,17.41
2022-12-31T06:22:48.227Z,17.82
2022-12-31T06:25:23.120Z,17.77
2022-12-31T06:27:51.107Z,17.86
2022-12-31T06:30:22.406Z,17.70
2022-12-31T06:32:51.234Z,17.64
2022-12-31T06:35:22.102Z,17.64
2022-12-31T06:37:50.128Z,17.50
2022-12-31T06:40:19.200Z,17.09
2022-12-31T06:42:46.405Z,16.99
2022-12-31T06:45:13.553Z,16.63
2022-12-31T06:47:42.012Z,16.82
2022-12-31T06:50:09.550Z,16.92
2022-12-31T06:52:37.209Z,16.82
2022-12-31T06:55:06.139Z,16.94
2022-12-31T06:57:33.792Z,17.16
2022-12-31T07:00:01.542Z,17.28
2022-12-31T07:02:37.392Z,17.42
2022-12-31T07:05:29.362Z,17.65
2022-12-31T07:08:20.761Z,17.75
2022-12-31T07:11:13.863Z,17.99
2022-12-31T07:17:34.964Z,17.77
2022-12-31T07:20:13.306Z,17.65
2022-12-31T07:22:41.113Z,17.96
2022-12-31T07:25:18.128Z,17.16
2022-12-31T07:28:00.416Z,16.43
2022-12-31T07:30:55.791Z,17.66
2022-12-31T07:33:47.193Z,17.86
2022-12-31T07:36:31.767Z,17.95
2022-12-31T07:39:45.791Z,16.94
2022-12-31T07:42:36.897Z,16.66
2022-12-31T07:45:28.626Z,16.11
2022-12-31T07:48:02.109Z,16.42
2022-12-31T07:50:30.433Z,16.63
2022-12-31T07:52:58.084Z,18.04
2022-12-31T07:55:25.384Z,18.35
2022-12-31T07:58:03.580Z,18.11
2022-12-31T08:00:32.194Z,18.01
2022-12-31T08:03:23.369Z,18.59
2022-12-31T08:05:59.562Z,18.37
2022-12-31T08:09:09.988Z,18.30
2022-12-31T08:12:08.166Z,18.30
2022-12-31T08:14:48.599Z,18.32
2022-12-31T08:17:18.704Z,18.09
2022-12-31T08:19:47.115Z,16.48
2022-12-31T08:22:32.156Z,15.75
2022-12-31T08:25:34.892Z,14.75
2022-12-31T08:28:46.835Z,15.20
2022-12-31T08:31:20.028Z,16.37
2022-12-31T08:34:39.982Z,17.00
2022-12-31T08:37:39.011Z,15.65
2022-12-31T08:40:25.124Z,16.99
2022-12-31T08:43:41.258Z,18.73
2022-12-31T08:46:28.205Z,18.98
2022-12-31T08:48:55.957Z,19.03
2022-12-31T08:51:26.870Z,19.18
2022-12-31T08:53:55.546Z,19.02
2022-12-31T08:56:36.941Z,20.10
2022-12-31T08:59:44.247Z,20.11
2022-12-31T09:02:57.055Z,20.12
2022-12-31T09:06:05.672Z,19.92
2022-12-31T09:08:56.336Z,20.15
2022-12-31T09:11:53.685Z,19.58
2022-12-31T09:15:24.503Z,20.87
2022-12-31T09:17:53.506Z,20.71
2022-12-31T09:20:23.851Z,19.94
2022-12-31T09:22:54.799Z,19.69
2022-12-31T09:25:25.271Z,20.20
2022-12-31T09:28:19.928Z,20.86
2022-12-31T09:30:50.018Z,20.91
2022-12-31T09:34:01.690Z,21.72
2022-12-31T09:36:51.501Z,21.53
2022-12-31T09:39:37.421Z,21.94
2022-12-31T09:42:50.768Z,21.37
2022-12-31T09:46:04.785Z,20.65
2022-12-31T09:48:54.123Z,20.95
2022-12-31T09:51:32.601Z,21.81
2022-12-31T09:54:09.919Z,22.41
2022-12-31T09:56:59.290Z,22.37
2022-12-31T09:59:51.630Z,21.67
2022-12-31T10:02:41.995Z,21.59
2022-12-31T10:05:40.212Z,22.62
2022-12-31T10:08:25.534Z,22.32
2022-12-31T10:11:31.015Z,23.99
2022-12-31T10:14:45.290Z,23.02
2022-12-31T10:17:48.490Z,22.18
2022-12-31T10:20:45.575Z,21.55
2022-12-31T10:23:55.671Z,21.44
2022-12-31T10:26:54.743Z,21.05
2022-12-31T10:29:47.333Z,22.40
2022-12-31T10:32:26.297Z,22.33
2022-12-31T10:35:15.264Z,23.47
2022-12-31T10:38:02.918Z,24.81
2022-12-31T10:41:04.729Z,24.58
2022-12-31T10:44:15.148Z,22.51
2022-12-31T10:47:01.004Z,22.16
2022-12-31T10:49:56.028Z,21.04
2022-12-31T10:53:10.906Z,21.59
2022-12-31T10:55:59.129Z,23.33
2022-12-31T10:59:25.504Z,23.69
2022-12-31T11:02:07.458Z,21.61
2022-12-31T11:05:46.105Z,20.33
2022-12-31T11:08:58.228Z,21.41
2022-12-31T11:11:55.941Z,21.32
2022-12-31T11:15:03.167Z,22.06
2022-12-31T11:17:45.430Z,23.14
2022-12-31T11:20:39.607Z,21.13
2022-12-31T11:23:30.974Z,19.66
2022-12-31T11:26:23.424Z,21.65
2022-12-31T11:29:10.480Z,22.72
2022-12-31T11:32:06.841Z,23.28
2022-12-31T11:34:57.940Z,23.78
2022-12-31T11:37:50.375Z,24.75
2022-12-31T11:40:48.287Z,25.19
2022-12-31T11:43:57.001Z,24.76
2022-12-31T11:47:14.661Z,25.33
2022-12-31T11:50:01.034Z,25.69
2022-12-31T11:53:06.908Z,24.58
2022-12-31T11:56:12.321Z,24.29
2022-12-31T11:58:48.083Z,23.70
2022-12-31T12:01:27.817Z,23.98
2022-12-31T12:03:55.647Z,25.07
2022-12-31T12:06:32.345Z,25.33
2022-12-31T12:09:07.611Z,26.28
2022-12-31T12:14:54.089Z,28.44
2022-12-31T12:17:34.663Z,24.57
2022-12-31T12:20:17.362Z,25.05
2022-12-31T12:22:56.932Z,25.78
2022-12-31T12:25:45.685Z,26.44
2022-12-31T12:28:27.213Z,28.49
2022-12-31T12:31:05.163Z,28.76
2022-12-31T12:33:46.664Z,25.18
2022-12-31T12:36:17.829Z,24.36
2022-12-31T12:38:47.854Z,23.97
2022-12-31T12:41:28.974Z,22.27
2022-12-31T12:44:08.096Z,21.40
2022-12-31T12:46:50.433Z,19.10
2022-12-31T12:49:33.120Z,18.53
2022-12-31T12:52:22.518Z,19.09
2022-12-31T12:55:13.903Z,19.70
2022-12-31T12:58:12.870Z,18.26
2022-12-31T13:01:29.611Z,18.53
2022-12-31T13:07:53.260Z,19.28
2022-12-31T13:10:51.392Z,18.27
2022-12-31T13:13:53.660Z,18.31
2022-12-31T13:16:44.239Z,18.06
2022-12-31T13:19:39.727Z,17.16
2022-12-31T13:22:25.897Z,17.24
2022-12-31T13:24:54.327Z,18.20
2022-12-31T13:27:45.468Z,19.29
2022-12-31T13:30:25.794Z,19.44
2022-12-31T13:33:04.037Z,20.52
2022-12-31T13:36:04.645Z,19.77
2022-12-31T13:38:40.990Z,22.16
2022-12-31T13:41:42.365Z,22.90
2022-12-31T13:44:29.784Z,21.40
2022-12-31T13:47:17.881Z,19.02
2022-12-31T13:50:24.740Z,19.12
2022-12-31T13:53:14.836Z,18.63
2022-12-31T13:55:58.260Z,18.18
2022-12-31T13:58:47.125Z,18.32
2022-12-31T14:01:55.128Z,18.71
2022-12-31T14:04:39.314Z,19.26
2022-12-31T14:07:38.919Z,19.03
2022-12-31T14:10:17.251Z,18.58
2022-12-31T14:13:10.783Z,19.26
2022-12-31T14:16:08.531Z,19.30
2022-12-31T14:18:57.177Z,19.55
2022-12-31T14:21:35.113Z,20.16
2022-12-31T14:24:05.373Z,20.61
2022-12-31T14:26:45.564Z,20.91
2022-12-31T14:29:14.224Z,20.98
2022-12-31T14:31:51.847Z,21.12
2022-12-31T14:34:26.913Z,21.22
2022-12-31T14:37:28.458Z,21.43
2022-12-31T14:40:14.292Z,21.35
2022-12-31T14:43:22.511Z,21.00
2022-12-31T14:46:21.178Z,20.88
2022-12-31T14:49:16.350Z,20.99
2022-12-31T14:51:43.915Z,20.91
2022-12-31T14:54:38.592Z,20.97
2022-12-31T14:57:24.433Z,21.12
2022-12-31T15:00:02.000Z,21.22
2022-12-31T15:02:35.421Z,21.35
2022-12-31T15:05:12.163Z,20.98
2022-12-31T15:08:05.581Z,21.30
2022-12-31T15:11:00.735Z,21.35
2022-12-31T15:13:47.119Z,18.71
2022-12-31T15:16:38.789Z,18.75
2022-12-31T15:19:32.479Z,20.42
2022-12-31T15:22:29.191Z,21.04
2022-12-31T15:24:56.677Z,20.45
2022-12-31T15:27:35.758Z,20.11
2022-12-31T15:30:06.339Z,19.76
2022-12-31T15:32:44.513Z,18.94
2022-12-31T15:35:21.473Z,18.16
2022-12-31T15:38:13.203Z,18.38
2022-12-31T15:40:54.503Z,18.42
2022-12-31T15:43:56.962Z,17.16
2022-12-31T15:46:34.021Z,17.65
2022-12-31T15:49:15.292Z,18.06
2022-12-31T15:51:51.912Z,17.58
2022-12-31T15:54:35.333Z,18.58
2022-12-31T15:57:09.025Z,18.32
2022-12-31T15:59:38.413Z,18.06
2022-12-31T16:02:21.385Z,18.13
2022-12-31T16:04:50.456Z,17.87
2022-12-31T16:07:19.014Z,18.21
2022-12-31T16:09:58.785Z,18.20
2022-12-31T16:12:35.111Z,18.44
2022-12-31T16:15:05.564Z,18.32
2022-12-31T16:17:36.288Z,17.56
2022-12-31T16:20:24.958Z,16.68
2022-12-31T16:22:57.638Z,16.65
2022-12-31T16:25:31.306Z,16.33
2022-12-31T16:28:03.814Z,16.32
2022-12-31T16:30:36.152Z,16.57
2022-12-31T16:33:11.844Z,16.83
2022-12-31T16:35:39.555Z,16.91
2022-12-31T16:38:18.833Z,17.21
2022-12-31T16:41:15.239Z,17.20
2022-12-31T16:43:43.914Z,17.56
2022-12-31T16:46:18.124Z,16.51
2022-12-31T16:49:06.765Z,15.77
2022-12-31T16:51:38.409Z,15.77
2022-12-31T16:54:20.966Z,15.87
2022-12-31T16:56:48.735Z,16.01
2022-12-31T16:59:37.048Z,16.20
2022-12-31T17:02:16.659Z,15.71
2022-12-31T17:04:55.350Z,15.91
2022-12-31T17:07:32.266Z,16.24
2022-12-31T17:10:08.801Z,16.55
2022-12-31T17:13:25.472Z,16.48
2022-12-31T17:15:44.301Z,16.62
2022-12-31T17:18:28.984Z,16.24
2022-12-31T17:21:11.253Z,16.65
2022-12-31T17:23:41.103Z,16.67
2022-12-31T17:26:14.164Z,16.72
2022-12-31T17:28:52.348Z,16.40
2022-12-31T17:31:59.326Z,16.38
2022-12-31T17:34:38.067Z,16.15
2022-12-31T17:37:25.825Z,16.06
2022-12-31T17:40:17.065Z,15.70
2022-12-31T17:42:49.074Z,15.60
2022-12-31T17:45:22.648Z,15.57
2022-12-31T17:47:53.992Z,15.53
2022-12-31T17:50:22.726Z,15.74
2022-12-31T17:52:50.510Z,15.72
2022-12-31T17:55:18.737Z,15.58
2022-12-31T17:57:55.776Z,15.71
2022-12-31T18:00:27.367Z,15.71
2022-12-31T18:02:55.055Z,15.87
2022-12-31T18:05:24.767Z,16.21
2022-12-31T18:07:53.271Z,16.35
2022-12-31T18:10:24.719Z,16.21
2022-12-31T18:12:52.243Z,16.34
2022-12-31T18:15:24.781Z,16.44
2022-12-31T18:17:52.419Z,16.20
2022-12-31T18:20:20.052Z,14.09
2022-12-31T18:22:47.518Z,15.23
2022-12-31T18:25:23.228Z,14.79
2022-12-31T18:27:52.287Z,15.45
2022-12-31T18:30:20.000Z,15.70
2022-12-31T18:32:47.644Z,15.74
2022-12-31T18:38:17.728Z,15.94
2022-12-31T18:41:00.158Z,15.69
2022-12-31T18:43:27.460Z,15.53
2022-12-31T18:45:54.968Z,15.75
2022-12-31T18:48:22.401Z,15.94
2022-12-31T18:50:49.897Z,15.93
2022-12-31T18:53:23.761Z,15.89
2022-12-31T18:55:57.565Z,15.71
2022-12-31T18:58:24.905Z,14.89
2022-12-31T19:00:52.705Z,15.04
2022-12-31T19:03:24.357Z,15.06
2022-12-31T19:05:52.253Z,15.14
2022-12-31T19:08:23.293Z,15.10
2022-12-31T19:10:52.506Z,15.15
2022-12-31T19:13:21.024Z,15.11
2022-12-31T19:15:55.763Z,15.09
2022-12-31T19:18:23.009Z,14.97
2022-12-31T19:20:52.459Z,14.98
2022-12-31T19:23:23.047Z,15.16
2022-12-31T19:25:50.592Z,15.11
2022-12-31T19:28:28.177Z,14.99
2022-12-31T19:30:55.816Z,14.99
2022-12-31T19:33:23.086Z,14.98
2022-12-31T19:35:50.500Z,15.04
2022-12-31T19:38:19.141Z,15.01
2022-12-31T19:40:47.394Z,15.36
2022-12-31T19:43:17.179Z,15.63
2022-12-31T19:45:45.791Z,15.97
2022-12-31T19:48:19.173Z,15.80
2022-12-31T19:50:53.257Z,15.49
2022-12-31T19:53:25.751Z,15.53
2022-12-31T19:55:54.225Z,15.83
2022-12-31T19:58:27.931Z,15.83
2022-12-31T20:01:02.343Z,15.80
2022-12-31T20:03:32.901Z,15.61
2022-12-31T20:06:10.428Z,15.60
2022-12-31T20:08:39.849Z,15.60
2022-12-31T20:11:20.500Z,15.57
2022-12-31T20:13:50.458Z,15.68
2022-12-31T20:16:21.609Z,15.59
2022-12-31T20:18:50.939Z,15.76
2022-12-31T20:21:25.822Z,15.86
2022-12-31T20:23:55.019Z,15.88
2022-12-31T20:26:24.642Z,15.84
2022-12-31T20:28:52.840Z,15.76
2022-12-31T20:31:25.003Z,15.81
2022-12-31T20:33:54.496Z,15.58
2022-12-31T20:36:22.733Z,15.46
2022-12-31T20:38:50.221Z,15.64
2022-12-31T20:41:23.068Z,15.71
2022-12-31T20:43:51.224Z,15.53
2022-12-31T20:46:22.901Z,15.69
2022-12-31T20:48:54.037Z,15.86
2022-12-31T20:51:23.515Z,15.86
2022-12-31T20:54:00.115Z,15.14
2022-12-31T20:56:31.156Z,15.27
2022-12-31T20:58:59.208Z,15.48
2022-12-31T21:02:19.314Z,15.27
2022-12-31T21:04:32.710Z,14.96
2022-12-31T21:07:00.094Z,15.06
2022-12-31T21:09:27.312Z,14.97
2022-12-31T21:12:13.284Z,15.01
2022-12-31T21:14:44.698Z,15.08
2022-12-31T21:17:12.347Z,15.03
2022-12-31T21:19:39.590Z,15.41
2022-12-31T21:22:06.938Z,15.56
2022-12-31T21:24:56.023Z,14.28
2022-12-31T21:27:23.717Z,15.21
2022-12-31T21:30:17.874Z,15.25
2022-12-31T21:32:38.412Z,15.00
2022-12-31T21:35:41.109Z,14.76
2022-12-31T21:37:58.670Z,14.86
2022-12-31T21:40:29.180Z,14.98
2022-12-31T21:42:56.389Z,15.11
2022-12-31T21:45:23.836Z,15.15
2022-12-31T21:48:09.537Z,14.90
2022-12-31T21:50:36.799Z,14.44
2022-12-31T21:53:03.975Z,14.98
2022-12-31T21:56:05.240Z,14.92
2022-12-31T21:58:33.125Z,14.57
2022-12-31T22:01:20.080Z,13.87
2022-12-31T22:03:47.799Z,14.80
2022-12-31T22:06:25.208Z,14.67
2022-12-31T22:08:55.796Z,14.68
2022-12-31T22:11:27.833Z,14.49
2022-12-31T22:13:56.396Z,14.50
2022-12-31T22:16:24.288Z,14.60
2022-12-31T22:18:51.637Z,14.37
2022-12-31T22:21:21.167Z,14.23
2022-12-31T22:23:56.613Z,14.08
2022-12-31T22:26:28.714Z,13.79
2022-12-31T22:28:59.773Z,13.97
2022-12-31T22:31:32.822Z,14.02
2022-12-31T22:34:03.393Z,14.27
2022-12-31T22:36:30.923Z,14.14
2022-12-31T22:38:58.745Z,14.22
2022-12-31T22:41:29.974Z,14.47
2022-12-31T22:44:04.089Z,14.35
2022-12-31T22:46:33.088Z,14.16
2022-12-31T22:49:03.100Z,13.92
2022-12-31T22:51:56.330Z,14.38
2022-12-31T22:54:19.614Z,12.90
2022-12-31T22:56:46.853Z,13.74
2022-12-31T22:59:14.068Z,13.83
2022-12-31T23:01:41.401Z,14.05
2022-12-31T23:09:06.590Z,14.22
2022-12-31T23:11:36.513Z,13.86
2022-12-31T23:14:36.100Z,13.51
2022-12-31T23:17:29.944Z,13.77
2022-12-31T23:20:21.213Z,12.32
2022-12-31T23:23:07.067Z,13.56
2022-12-31T23:25:47.355Z,13.46
2022-12-31T23:28:18.486Z,13.86
2022-12-31T23:30:45.931Z,13.21
2022-12-31T23:33:21.601Z,12.99
2022-12-31T23:35:49.304Z,13.74
2022-12-31T23:38:18.376Z,13.12
2022-12-31T23:40:45.999Z,13.50
2022-12-31T23:43:22.015Z,13.83
2022-12-31T23:45:51.474Z,14.17
2022-12-31T23:48:18.910Z,11.98
2022-12-31T23:50:52.991Z,13.22
2022-12-31T23:53:23.254Z,13.54
2022-12-31T23:55:51.929Z,13.44
2022-12-31T23:58:19.300Z,13.06
